Time;durP1;ratioP1;P1;durP2;ratioP2;P2;SDS_P1;SDS_P2;PMS_P1;PMS_P2;Temp;Humidity;BMP_temperature;BMP_pressure;BME280_temperature;BME280_humidity;BME280_pressure;Samples;Min_cycle;Max_cycle;Signal;HPM_P1;HPM_P2
2022/12/12 00:00:12;;;;;;;24.93;15.40;;;0.80;99.90;;;;;;5028720;28;20187;-63
2022/12/12 00:02:40;;;;;;;23.70;15.98;;;0.70;99.90;;;;;;5026154;28;20190;-63
2022/12/12 00:05:07;;;;;;;24.67;15.38;;;1.00;99.90;;;;;;5027564;28;20297;-63
2022/12/12 00:07:32;;;;;;;21.38;15.07;;;0.80;99.90;;;;;;5025560;28;20252;-63
2022/12/12 00:09:59;;;;;;;25.40;16.13;;;0.70;99.90;;;;;;5029585;28;20182;-63
2022/12/12 00:12:25;;;;;;;21.05;14.63;;;0.70;99.90;;;;;;5028686;28;20261;-63
2022/12/12 00:14:50;;;;;;;23.87;15.00;;;0.70;99.90;;;;;;5029237;28;20277;-63
2022/12/12 00:17:16;;;;;;;23.90;15.13;;;0.70;99.90;;;;;;5023150;28;20182;-63
2022/12/12 00:19:42;;;;;;;23.73;15.37;;;1.20;99.90;;;;;;5030762;28;20897;-63
2022/12/12 00:22:08;;;;;;;24.43;16.03;;;0.70;99.90;;;;;;5024490;28;20703;-63
2022/12/12 00:24:34;;;;;;;21.20;15.45;;;0.70;99.90;;;;;;5027731;28;20273;-63
2022/12/12 00:27:00;;;;;;;24.60;15.83;;;1.30;99.90;;;;;;5022453;28;20644;-64
2022/12/12 00:29:26;;;;;;;25.60;17.87;;;0.40;99.90;;;;;;5021858;28;20500;-62
2022/12/12 00:31:51;;;;;;;23.50;15.30;;;1.30;99.90;;;;;;5024557;28;20651;-64
2022/12/12 00:34:17;;;;;;;27.13;16.37;;;0.60;99.90;;;;;;5029010;28;20182;-63
2022/12/12 00:36:43;;;;;;;20.33;14.50;;;1.20;99.90;;;;;;5021898;28;20568;-62
2022/12/12 00:39:09;;;;;;;25.70;16.20;;;0.90;99.90;;;;;;5021399;28;20190;-62
2022/12/12 00:41:36;;;;;;;25.37;15.60;;;0.10;99.90;;;;;;5025601;28;20953;-62
2022/12/12 00:44:03;;;;;;;23.90;16.65;;;0.70;99.90;;;;;;5027678;28;20193;-63
2022/12/12 00:46:28;;;;;;;21.00;15.00;;;0.90;99.90;;;;;;5029403;28;20191;-62
2022/12/12 00:48:56;;;;;;;22.20;13.90;;;0.80;99.90;;;;;;5028619;28;20202;-62
2022/12/12 00:51:24;;;;;;;23.80;15.60;;;0.50;99.90;;;;;;5031502;28;20444;-63
2022/12/12 00:53:50;;;;;;;20.80;14.13;;;0.80;99.90;;;;;;5027614;28;20206;-63
2022/12/12 00:56:19;;;;;;;25.25;15.27;;;0.70;99.90;;;;;;5022909;28;20207;-63
2022/12/12 00:58:45;;;;;;;22.10;15.00;;;0.50;99.90;;;;;;5029427;28;20193;-64
2022/12/12 01:01:17;;;;;;;22.52;13.70;;;0.50;99.90;;;;;;5030026;28;20178;-63
2022/12/12 01:03:43;;;;;;;23.27;14.50;;;1.00;99.90;;;;;;5023917;28;20249;-63
2022/12/12 01:06:10;;;;;;;23.08;14.85;;;1.00;99.90;;;;;;5029509;28;20226;-63
2022/12/12 01:08:36;;;;;;;23.98;14.93;;;0.30;99.90;;;;;;5027818;28;20280;-63
2022/12/12 01:11:03;;;;;;;20.73;14.20;;;-0.20;99.90;;;;;;5029007;28;20274;-63
2022/12/12 01:13:28;;;;;;;18.50;13.32;;;0.60;99.90;;;;;;5029797;28;20281;-63
2022/12/12 01:15:54;;;;;;;26.20;15.47;;;0.30;99.90;;;;;;5030909;28;20810;-63
2022/12/12 01:18:19;;;;;;;22.57;14.77;;;1.10;99.90;;;;;;5028794;28;20561;-62
2022/12/12 01:20:45;;;;;;;20.83;14.17;;;0.60;99.90;;;;;;5026515;28;20194;-63
2022/12/12 01:23:11;;;;;;;22.75;14.40;;;0.30;99.90;;;;;;5028680;28;20210;-63
2022/12/12 01:25:37;;;;;;;18.93;13.87;;;0.80;99.90;;;;;;5029703;28;20209;-63
2022/12/12 01:28:03;;;;;;;24.27;14.07;;;0.30;99.90;;;;;;5030756;28;20214;-63
2022/12/12 01:30:29;;;;;;;19.80;12.70;;;0.20;99.90;;;;;;5025194;28;20202;-63
2022/12/12 01:32:55;;;;;;;19.53;12.83;;;-0.20;99.90;;;;;;5029808;28;20186;-63
2022/12/12 01:35:22;;;;;;;21.60;13.53;;;0.40;99.90;;;;;;5029742;28;20457;-63
2022/12/12 01:37:48;;;;;;;18.55;12.85;;;0.30;99.90;;;;;;5021744;28;20452;-63
2022/12/12 01:40:23;;;;;;;22.55;14.05;;;0.20;99.90;;;;;;5028106;28;20495;-62
2022/12/12 01:42:49;;;;;;;22.75;14.32;;;0.80;99.90;;;;;;5030062;28;20650;-63
2022/12/12 01:45:52;;;;;;;19.40;13.40;;;0.40;99.90;;;;;;5029351;28;20203;-64
2022/12/12 01:48:21;;;;;;;19.33;12.95;;;0.30;99.90;;;;;;5024982;28;20714;-63
2022/12/12 01:50:48;;;;;;;22.88;14.77;;;0.30;99.90;;;;;;5030307;28;20273;-62
2022/12/12 01:53:16;;;;;;;22.15;15.45;;;0.20;99.90;;;;;;5029943;28;20174;-63
2022/12/12 01:55:43;;;;;;;24.55;14.25;;;0.20;99.90;;;;;;5028576;28;20648;-63
2022/12/12 01:58:09;;;;;;;19.83;12.90;;;0.00;99.90;;;;;;5025023;28;20274;-64
2022/12/12 02:00:35;;;;;;;18.63;13.73;;;0.10;99.90;;;;;;5017694;28;20561;-63
2022/12/12 02:03:01;;;;;;;20.17;12.25;;;-0.10;99.90;;;;;;5023439;28;20197;-63
2022/12/12 02:05:44;;;;;;;18.27;12.53;;;0.20;99.90;;;;;;5031869;28;20296;-63
2022/12/12 02:08:11;;;;;;;22.13;12.77;;;0.00;99.90;;;;;;5023839;28;20514;-63
2022/12/12 02:10:37;;;;;;;23.08;13.68;;;-0.10;99.90;;;;;;5025637;28;20187;-63
2022/12/12 02:13:09;;;;;;;19.83;11.80;;;0.00;99.90;;;;;;5026999;28;20632;-63
2022/12/12 02:15:48;;;;;;;19.98;13.50;;;0.00;99.90;;;;;;5020923;28;20476;-63
2022/12/12 02:18:37;;;;;;;20.95;13.60;;;-0.10;99.90;;;;;;5019952;28;20637;-64
2022/12/12 02:21:17;;;;;;;23.17;14.38;;;-0.10;99.90;;;;;;5026887;28;20328;-64
2022/12/12 02:23:49;;;;;;;17.85;13.45;;;-0.40;99.90;;;;;;5023133;28;20193;-64
2022/12/12 02:26:29;;;;;;;21.45;12.85;;;-0.50;99.90;;;;;;5029496;28;20244;-63
2022/12/12 02:29:29;;;;;;;22.35;14.10;;;-0.70;99.90;;;;;;5026112;28;20256;-64
2022/12/12 02:32:43;;;;;;;22.63;14.65;;;-0.70;99.90;;;;;;5028436;28;20272;-64
2022/12/12 02:35:28;;;;;;;17.83;11.80;;;-0.50;99.90;;;;;;5025678;28;20222;-65
2022/12/12 02:38:41;;;;;;;27.33;15.40;;;-0.60;99.90;;;;;;5026954;28;20193;-64
2022/12/12 02:41:13;;;;;;;21.70;14.82;;;-0.40;99.90;;;;;;5046805;28;20266;-64
2022/12/12 02:43:56;;;;;;;24.90;15.15;;;-0.50;99.90;;;;;;5048769;28;20571;-63
2022/12/12 02:46:34;;;;;;;25.90;14.82;;;-0.60;99.90;;;;;;5031998;28;20293;-64
2022/12/12 02:49:10;;;;;;;22.25;13.07;;;-0.60;99.90;;;;;;5030267;28;20205;-63
2022/12/12 02:51:38;;;;;;;26.65;15.88;;;-1.20;99.90;;;;;;5026966;28;20657;-65
2022/12/12 02:54:05;;;;;;;21.20;13.73;;;-0.70;99.90;;;;;;5024480;28;20193;-64
2022/12/12 02:56:50;;;;;;;23.17;13.85;;;-0.70;99.90;;;;;;5025017;28;20195;-64
2022/12/12 02:59:29;;;;;;;22.17;12.85;;;-0.60;99.90;;;;;;5022056;28;20279;-63
2022/12/12 03:02:25;;;;;;;21.17;13.60;;;-0.80;99.90;;;;;;5024573;28;20197;-64
2022/12/12 03:08:31;;;;;;;23.52;16.17;;;-0.60;99.90;;;;;;5015793;28;20218;-64
2022/12/12 03:11:08;;;;;;;22.20;14.52;;;-1.00;99.90;;;;;;5025654;28;20193;-64
2022/12/12 03:13:50;;;;;;;24.27;14.80;;;-1.00;99.90;;;;;;5027621;28;20653;-63
2022/12/12 03:16:37;;;;;;;20.67;13.88;;;-1.00;99.90;;;;;;5023167;28;20221;-64
2022/12/12 03:19:25;;;;;;;23.85;14.63;;;-1.10;99.90;;;;;;5019663;28;20198;-63
2022/12/12 03:21:57;;;;;;;22.15;14.65;;;-1.10;99.90;;;;;;5026598;28;20186;-63
2022/12/12 03:24:28;;;;;;;22.58;14.27;;;-1.20;99.90;;;;;;5027221;28;20587;-64
2022/12/12 03:26:57;;;;;;;22.40;15.15;;;-1.20;99.90;;;;;;5025024;28;20197;-65
2022/12/12 03:29:58;;;;;;;23.33;14.63;;;-1.10;99.90;;;;;;5025117;28;20715;-63
2022/12/12 03:32:38;;;;;;;23.83;14.65;;;-1.20;99.90;;;;;;5027262;28;20550;-64
2022/12/12 03:35:36;;;;;;;22.92;15.45;;;-1.60;99.90;;;;;;5024533;28;20245;-63
2022/12/12 03:38:35;;;;;;;23.30;15.60;;;-1.10;99.90;;;;;;5018058;28;20680;-64
2022/12/12 03:41:05;;;;;;;26.48;16.98;;;-1.30;99.90;;;;;;5021158;28;20195;-64
2022/12/12 03:43:53;;;;;;;25.02;16.13;;;-1.30;99.90;;;;;;5024390;28;20198;-64
2022/12/12 03:46:41;;;;;;;21.38;14.23;;;-1.30;99.90;;;;;;5026722;28;20769;-64
2022/12/12 03:49:12;;;;;;;25.08;14.73;;;-1.30;99.90;;;;;;5024233;28;20282;-63
2022/12/12 03:51:43;;;;;;;22.00;13.65;;;-1.30;99.90;;;;;;5028555;28;20195;-64
2022/12/12 03:54:22;;;;;;;22.85;14.15;;;-1.50;99.90;;;;;;5025000;28;20244;-65
2022/12/12 03:57:00;;;;;;;25.35;14.82;;;-1.50;99.90;;;;;;5025389;28;20672;-65
2022/12/12 03:59:38;;;;;;;24.88;13.55;;;-1.20;99.90;;;;;;5026014;28;20679;-65
2022/12/12 04:02:15;;;;;;;22.00;13.02;;;-1.50;99.90;;;;;;5020264;28;20214;-65
2022/12/12 04:04:55;;;;;;;24.67;15.10;;;-1.30;99.90;;;;;;5027585;28;20210;-64
2022/12/12 04:07:33;;;;;;;26.65;14.60;;;-1.50;99.90;;;;;;5020429;28;20207;-64
2022/12/12 04:12:58;;;;;;;21.90;12.65;;;-1.30;99.90;;;;;;5020053;28;20208;-64
2022/12/12 04:15:52;;;;;;;34.88;23.45;;;-2.00;99.90;;;;;;5021649;28;20205;-64
2022/12/12 04:18:33;;;;;;;23.05;13.98;;;-1.50;99.90;;;;;;5027773;28;20195;-64
2022/12/12 04:24:37;;;;;;;24.42;14.82;;;-1.80;99.90;;;;;;5028866;28;20222;-63
2022/12/12 04:27:17;;;;;;;19.13;13.38;;;-1.70;99.90;;;;;;5029387;28;20193;-65
2022/12/12 04:30:07;;;;;;;19.42;13.50;;;-1.60;99.90;;;;;;5024981;28;20191;-65
2022/12/12 04:32:41;;;;;;;20.30;13.40;;;-1.80;99.90;;;;;;5029079;28;20270;-65
2022/12/12 04:35:30;;;;;;;23.20;13.90;;;-1.60;99.90;;;;;;5018713;28;20212;-65
2022/12/12 04:38:20;;;;;;;21.85;13.75;;;-1.70;99.90;;;;;;5018270;28;20184;-64
2022/12/12 04:40:49;;;;;;;23.00;14.18;;;-1.80;99.90;;;;;;5031519;28;20596;-65
2022/12/12 04:43:19;;;;;;;22.17;15.00;;;-1.50;99.90;;;;;;5023956;28;20279;-64
2022/12/12 04:45:53;;;;;;;20.55;13.98;;;-1.40;99.90;;;;;;5018441;28;20279;-64
2022/12/12 04:48:25;;;;;;;21.15;14.10;;;-1.40;99.90;;;;;;5023080;28;20307;-65
2022/12/12 04:50:52;;;;;;;25.20;14.50;;;-1.60;99.90;;;;;;5027229;28;20273;-64
2022/12/12 04:53:27;;;;;;;22.80;14.80;;;-1.50;99.90;;;;;;5024193;28;20206;-65
2022/12/12 04:55:56;;;;;;;25.25;14.27;;;-1.50;99.90;;;;;;5025474;28;20200;-65
2022/12/12 04:58:22;;;;;;;22.38;14.68;;;-1.30;99.90;;;;;;5024674;28;20723;-63
2022/12/12 05:00:57;;;;;;;25.42;15.75;;;-1.20;99.90;;;;;;5024951;28;20220;-64
2022/12/12 05:03:29;;;;;;;25.38;14.43;;;-1.40;99.90;;;;;;5021232;28;20180;-66
2022/12/12 05:05:59;;;;;;;25.00;15.25;;;-1.50;99.90;;;;;;5025116;28;20222;-67
2022/12/12 05:08:38;;;;;;;26.67;14.50;;;-1.10;99.90;;;;;;5020697;28;20220;-66
2022/12/12 05:11:05;;;;;;;27.88;17.65;;;-1.30;99.90;;;;;;5028064;28;20182;-67
2022/12/12 05:13:35;;;;;;;26.20;15.90;;;-1.10;99.90;;;;;;5030834;28;20189;-67
2022/12/12 05:16:03;;;;;;;23.75;15.60;;;-1.10;99.90;;;;;;5024329;28;20206;-66
2022/12/12 05:18:30;;;;;;;25.42;16.42;;;-1.40;99.90;;;;;;5024791;28;20258;-66
2022/12/12 05:20:55;;;;;;;20.20;14.05;;;-1.20;99.90;;;;;;5030293;28;20187;-65
2022/12/12 05:23:21;;;;;;;22.60;14.80;;;-1.60;99.90;;;;;;5032470;28;20273;-66
2022/12/12 05:25:47;;;;;;;24.17;16.00;;;-1.80;99.90;;;;;;5030560;28;20229;-66
2022/12/12 05:28:12;;;;;;;24.93;15.30;;;-1.20;99.90;;;;;;5028013;28;20201;-66
2022/12/12 05:30:38;;;;;;;26.57;15.63;;;-0.60;99.90;;;;;;5023636;28;20190;-65
2022/12/12 05:33:04;;;;;;;21.43;14.87;;;-1.70;99.90;;;;;;5027939;28;20189;-65
2022/12/12 05:35:30;;;;;;;23.23;16.10;;;-0.90;99.90;;;;;;5024424;28;20232;-66
2022/12/12 05:37:55;;;;;;;21.43;16.73;;;-1.00;99.90;;;;;;5021156;28;20268;-65
2022/12/12 05:40:21;;;;;;;24.80;16.63;;;-0.70;99.90;;;;;;5024231;28;20277;-65
2022/12/12 05:42:47;;;;;;;32.35;18.90;;;-0.20;99.90;;;;;;5027347;28;20191;-64
2022/12/12 05:45:13;;;;;;;25.20;15.40;;;-1.10;99.90;;;;;;5028440;28;20643;-64
2022/12/12 05:47:39;;;;;;;30.02;16.88;;;-1.40;99.90;;;;;;5027503;28;21011;-67
2022/12/12 05:50:06;;;;;;;29.53;17.23;;;-0.90;99.90;;;;;;5027543;28;20182;-65
2022/12/12 05:52:32;;;;;;;25.70;16.05;;;-1.10;99.90;;;;;;5025459;28;20370;-65
2022/12/12 05:54:57;;;;;;;25.47;17.27;;;-1.20;99.90;;;;;;5022312;28;20194;-65
2022/12/12 05:57:23;;;;;;;26.23;17.93;;;-0.90;99.90;;;;;;5017779;28;20186;-65
2022/12/12 05:59:49;;;;;;;26.33;16.70;;;-0.80;99.90;;;;;;5025635;28;20179;-65
2022/12/12 06:02:15;;;;;;;26.90;17.37;;;-1.00;99.90;;;;;;5031173;28;20186;-65
2022/12/12 06:04:41;;;;;;;30.48;17.48;;;-0.80;99.90;;;;;;5031398;28;20206;-64
2022/12/12 06:07:08;;;;;;;25.95;16.30;;;-1.20;99.90;;;;;;5023129;28;20253;-64
2022/12/12 06:09:35;;;;;;;29.35;17.48;;;-0.80;99.90;;;;;;5019382;28;20240;-65
2022/12/12 06:12:00;;;;;;;31.48;18.17;;;-0.90;99.90;;;;;;5026209;28;20182;-64
2022/12/12 06:14:26;;;;;;;30.43;17.73;;;-1.00;99.90;;;;;;5020608;28;20199;-64
2022/12/12 06:16:52;;;;;;;25.10;16.80;;;-0.80;99.90;;;;;;5022220;28;20265;-66
2022/12/12 06:19:18;;;;;;;29.77;18.37;;;-1.00;99.90;;;;;;5020898;28;20711;-65
2022/12/12 06:21:44;;;;;;;23.10;15.93;;;-1.00;99.90;;;;;;5021409;28;20187;-63
2022/12/12 06:24:10;;;;;;;28.63;17.20;;;-0.90;99.90;;;;;;5021000;28;20192;-64
2022/12/12 06:26:36;;;;;;;28.58;17.83;;;-0.70;99.90;;;;;;5020155;28;20975;-64
2022/12/12 06:29:03;;;;;;;23.00;16.90;;;-0.60;99.90;;;;;;5020009;28;20491;-64
2022/12/12 06:31:29;;;;;;;31.40;20.33;;;-1.30;99.90;;;;;;5026736;28;20240;-63
2022/12/12 06:33:55;;;;;;;32.72;18.90;;;-0.80;99.90;;;;;;5022851;28;20715;-66
2022/12/12 06:36:23;;;;;;;24.60;17.15;;;-0.80;99.90;;;;;;5018827;28;20379;-64
2022/12/12 06:38:59;;;;;;;28.25;18.88;;;-0.60;99.90;;;;;;5020879;28;20388;-66
2022/12/12 06:41:27;;;;;;;25.23;18.08;;;-0.70;99.90;;;;;;5019652;28;20217;-68
2022/12/12 06:43:53;;;;;;;29.33;19.15;;;-0.50;99.90;;;;;;5017883;28;20571;-66
2022/12/12 06:46:22;;;;;;;28.60;18.80;;;-0.50;99.90;;;;;;5015693;28;20277;-65
2022/12/12 06:48:49;;;;;;;25.52;17.52;;;-0.50;99.90;;;;;;5018095;28;20217;-64
2022/12/12 06:51:39;;;;;;;25.60;17.10;;;0.00;99.90;;;;;;5025902;28;20667;-65
2022/12/12 06:54:05;;;;;;;24.60;17.67;;;-0.40;99.90;;;;;;5018974;28;20182;-64
2022/12/12 06:56:31;;;;;;;25.93;15.60;;;-0.40;99.90;;;;;;5022100;28;20186;-66
2022/12/12 06:58:58;;;;;;;30.02;19.55;;;-0.60;99.90;;;;;;5017955;28;20183;-64
2022/12/12 07:01:24;;;;;;;28.17;17.30;;;-0.50;99.90;;;;;;5014598;28;20665;-64
2022/12/12 07:03:51;;;;;;;25.67;16.73;;;-0.50;99.90;;;;;;5019252;28;20190;-64
2022/12/12 07:06:19;;;;;;;26.30;16.92;;;-0.70;99.90;;;;;;5021058;28;20226;-65
2022/12/12 07:08:46;;;;;;;28.08;18.38;;;-0.30;99.90;;;;;;5022399;28;20237;-67
2022/12/12 07:11:15;;;;;;;26.30;17.45;;;-0.40;99.90;;;;;;5025115;28;20208;-67
2022/12/12 07:13:41;;;;;;;26.23;17.63;;;-0.40;99.90;;;;;;5024072;28;20205;-67
2022/12/12 07:16:07;;;;;;;29.77;19.10;;;-0.50;99.90;;;;;;5014083;28;20238;-65
2022/12/12 07:18:33;;;;;;;25.50;17.38;;;-0.70;99.90;;;;;;5019229;28;20449;-65
2022/12/12 07:21:04;;;;;;;30.60;17.45;;;-0.40;99.90;;;;;;5026629;28;20673;-64
2022/12/12 07:23:30;;;;;;;25.55;17.15;;;-0.50;99.90;;;;;;5015174;28;20710;-65
2022/12/12 07:25:55;;;;;;;28.33;17.23;;;-0.40;99.90;;;;;;5020776;28;20214;-64
2022/12/12 07:28:21;;;;;;;30.03;19.53;;;0.00;99.90;;;;;;5023665;28;20880;-65
2022/12/12 07:30:47;;;;;;;25.40;18.70;;;-0.30;99.90;;;;;;5020873;28;20190;-65
2022/12/12 07:33:15;;;;;;;32.03;18.40;;;-0.50;99.90;;;;;;5018558;28;20187;-65
2022/12/12 07:35:42;;;;;;;29.02;17.95;;;0.00;99.90;;;;;;5021669;28;20469;-65
2022/12/12 07:38:08;;;;;;;27.33;16.95;;;-0.40;99.90;;;;;;5022802;28;20376;-67
2022/12/12 07:40:34;;;;;;;25.08;16.70;;;-0.60;99.90;;;;;;5021248;28;20194;-67
2022/12/12 07:43:00;;;;;;;26.38;17.05;;;-0.60;99.90;;;;;;5015398;28;20187;-66
2022/12/12 07:45:26;;;;;;;25.70;16.70;;;-0.90;99.90;;;;;;5017108;28;20257;-66
2022/12/12 07:47:52;;;;;;;23.70;16.73;;;-0.40;99.90;;;;;;5023503;28;20687;-66
2022/12/12 07:50:18;;;;;;;25.40;17.90;;;-0.10;99.90;;;;;;5022631;28;20971;-66
2022/12/12 07:52:44;;;;;;;26.90;16.27;;;-0.20;99.90;;;;;;5025775;28;20441;-66
2022/12/12 07:55:10;;;;;;;25.93;17.70;;;-0.30;99.90;;;;;;5023294;28;20209;-65
2022/12/12 07:57:37;;;;;;;32.47;17.83;;;-0.20;99.90;;;;;;5026183;28;20686;-64
2022/12/12 08:00:07;;;;;;;24.85;16.17;;;-0.20;99.90;;;;;;5024310;28;20204;-63
2022/12/12 08:02:33;;;;;;;29.05;17.58;;;-0.10;99.90;;;;;;5040850;28;20191;-64
2022/12/12 08:04:59;;;;;;;22.70;15.17;;;0.30;99.90;;;;;;5028612;28;20275;-64
2022/12/12 08:07:25;;;;;;;24.03;16.97;;;-0.30;99.90;;;;;;5025666;28;20511;-64
2022/12/12 08:09:51;;;;;;;26.60;16.63;;;-0.10;99.90;;;;;;5024626;28;20220;-64
2022/12/12 08:12:17;;;;;;;23.88;16.98;;;-0.30;99.90;;;;;;5021353;28;20182;-66
2022/12/12 08:14:42;;;;;;;27.20;19.40;;;-0.30;99.90;;;;;;5017556;28;20202;-66
2022/12/12 08:17:08;;;;;;;28.00;17.47;;;-0.10;99.90;;;;;;5027747;28;20437;-65
2022/12/12 08:19:34;;;;;;;26.37;16.97;;;-0.30;99.90;;;;;;5029718;28;20185;-65
2022/12/12 08:21:59;;;;;;;25.83;17.60;;;-0.30;99.90;;;;;;5024086;28;20592;-68
2022/12/12 08:24:27;;;;;;;31.47;17.50;;;-0.10;99.90;;;;;;5019433;28;20213;-67
2022/12/12 08:26:53;;;;;;;24.15;16.52;;;-0.20;99.90;;;;;;5021695;28;21080;-64
2022/12/12 08:29:18;;;;;;;24.03;15.53;;;-0.10;99.90;;;;;;5025941;28;20253;-65
2022/12/12 08:31:44;;;;;;;25.83;16.30;;;0.10;99.90;;;;;;5025042;28;21216;-65
2022/12/12 08:34:10;;;;;;;24.03;16.60;;;-0.10;99.90;;;;;;5030240;28;20182;-64
2022/12/12 08:36:35;;;;;;;21.90;15.63;;;0.20;99.90;;;;;;5023983;28;20247;-66
2022/12/12 08:39:08;;;;;;;27.40;17.33;;;0.10;99.90;;;;;;5019140;28;20195;-65
2022/12/12 08:41:36;;;;;;;24.40;16.08;;;0.20;99.90;;;;;;5021916;28;20475;-66
2022/12/12 08:44:01;;;;;;;27.88;18.52;;;0.40;99.90;;;;;;5024378;28;20193;-66
2022/12/12 08:46:27;;;;;;;22.83;15.03;;;0.10;99.90;;;;;;5024897;28;20672;-65
2022/12/12 08:48:53;;;;;;;28.53;18.10;;;0.40;99.90;;;;;;5025311;28;20512;-64
2022/12/12 08:51:19;;;;;;;24.20;16.33;;;0.30;99.90;;;;;;5026938;28;20440;-63
2022/12/12 08:53:46;;;;;;;25.65;14.75;;;0.50;99.90;;;;;;5025618;28;20451;-64
2022/12/12 08:56:12;;;;;;;22.48;15.70;;;0.60;99.90;;;;;;5033388;28;20694;-64
2022/12/12 08:58:38;;;;;;;23.53;15.13;;;0.40;99.90;;;;;;5026220;28;20559;-64
2022/12/12 09:01:12;;;;;;;23.40;16.80;;;0.50;99.90;;;;;;5020849;28;20458;-64
2022/12/12 09:03:38;;;;;;;19.88;15.45;;;0.50;99.90;;;;;;5026470;28;20198;-65
2022/12/12 09:06:06;;;;;;;24.02;16.38;;;0.70;99.90;;;;;;5022941;28;20249;-63
2022/12/12 09:08:33;;;;;;;23.85;15.00;;;0.60;99.90;;;;;;5023256;28;20314;-64
2022/12/12 09:10:59;;;;;;;20.13;13.73;;;0.80;99.90;;;;;;5031848;28;20718;-65
2022/12/12 09:13:25;;;;;;;20.63;15.18;;;0.90;99.90;;;;;;5029093;28;20316;-63
2022/12/12 09:15:51;;;;;;;24.57;15.40;;;0.70;99.90;;;;;;5022431;28;20293;-62
2022/12/12 09:18:18;;;;;;;24.05;16.67;;;0.70;99.90;;;;;;5026661;28;20586;-67
2022/12/12 09:20:51;;;;;;;21.70;14.88;;;1.50;99.90;;;;;;5029801;28;20560;-67
2022/12/12 09:23:18;;;;;;;20.95;14.93;;;1.20;99.90;;;;;;5026713;28;20194;-66
2022/12/12 09:25:44;;;;;;;23.45;15.32;;;1.20;99.90;;;;;;5027048;28;20300;-65
2022/12/12 09:28:11;;;;;;;20.83;14.90;;;1.20;99.90;;;;;;5017968;28;20292;-64
2022/12/12 09:30:37;;;;;;;20.38;14.70;;;1.00;99.90;;;;;;5021884;28;20471;-66
2022/12/12 09:33:03;;;;;;;22.67;16.48;;;1.30;99.90;;;;;;5024276;28;20296;-64
2022/12/12 09:35:29;;;;;;;24.70;15.27;;;1.30;99.90;;;;;;5023014;28;20214;-63
2022/12/12 09:37:54;;;;;;;19.33;14.50;;;0.60;99.90;;;;;;5023288;28;20186;-65
2022/12/12 09:40:46;;;;;;;20.57;14.67;;;1.20;99.90;;;;;;5017982;28;20437;-66
2022/12/12 09:43:17;;;;;;;21.38;15.38;;;1.10;99.90;;;;;;5025186;28;20537;-66
2022/12/12 09:45:44;;;;;;;22.70;15.55;;;1.40;99.90;;;;;;5017487;28;20207;-66
2022/12/12 09:48:17;;;;;;;20.48;14.57;;;1.00;99.90;;;;;;5025900;28;20671;-66
2022/12/12 09:50:46;;;;;;;23.77;15.77;;;1.70;99.90;;;;;;5022907;28;20219;-66
2022/12/12 09:53:15;;;;;;;22.98;16.30;;;1.80;99.90;;;;;;5027037;28;20715;-66
2022/12/12 09:56:09;;;;;;;20.40;15.50;;;1.40;99.90;;;;;;5026107;28;20252;-64
2022/12/12 09:58:39;;;;;;;24.20;16.77;;;1.70;99.90;;;;;;5021791;28;20274;-63
2022/12/12 10:01:16;;;;;;;20.58;15.05;;;1.70;99.90;;;;;;5020935;28;20224;-63
2022/12/12 10:04:09;;;;;;;22.08;14.75;;;2.00;99.90;;;;;;5019804;28;20385;-66
2022/12/12 10:06:48;;;;;;;24.30;15.52;;;1.90;99.90;;;;;;5011313;28;20199;-67
2022/12/12 10:09:38;;;;;;;26.17;15.48;;;2.00;99.90;;;;;;5019819;28;20536;-65
2022/12/12 10:12:10;;;;;;;25.40;15.88;;;2.10;99.90;;;;;;5021564;28;20648;-64
2022/12/12 10:14:45;;;;;;;21.98;16.55;;;2.10;99.90;;;;;;5026648;28;20276;-64
2022/12/12 10:17:19;;;;;;;23.77;16.73;;;1.90;99.90;;;;;;5015123;28;20184;-63
2022/12/12 10:19:57;;;;;;;25.60;16.48;;;2.00;99.90;;;;;;5027665;28;20180;-66
2022/12/12 10:22:55;;;;;;;23.70;16.13;;;2.30;99.70;;;;;;5022646;28;20605;-64
2022/12/12 10:25:39;;;;;;;22.15;15.68;;;2.00;99.90;;;;;;5022227;28;20233;-64
2022/12/12 10:28:14;;;;;;;20.58;15.60;;;2.20;99.90;;;;;;5011410;28;20207;-66
2022/12/12 10:30:56;;;;;;;24.40;15.95;;;2.40;99.90;;;;;;5023259;28;20706;-64
2022/12/12 10:33:35;;;;;;;27.05;16.63;;;2.60;99.80;;;;;;5025362;28;20190;-63
2022/12/12 10:36:10;;;;;;;21.45;15.45;;;2.80;99.20;;;;;;5022943;28;20280;-65
2022/12/12 10:38:41;;;;;;;18.63;14.55;;;3.10;99.10;;;;;;5021579;28;20621;-62
2022/12/12 10:41:18;;;;;;;20.27;14.65;;;3.00;98.40;;;;;;5022478;28;20190;-63
2022/12/12 10:44:04;;;;;;;21.27;16.20;;;3.20;98.30;;;;;;5018242;28;20191;-65
2022/12/12 10:46:47;;;;;;;20.42;14.90;;;3.20;98.10;;;;;;5024138;28;20191;-65
2022/12/12 10:49:18;;;;;;;18.77;15.50;;;3.30;98.10;;;;;;5010976;28;20210;-67
2022/12/12 10:51:47;;;;;;;20.92;15.40;;;3.70;97.80;;;;;;5024215;28;20195;-66
2022/12/12 10:54:19;;;;;;;21.13;15.00;;;4.80;96.70;;;;;;5020733;28;20182;-67
2022/12/12 10:57:03;;;;;;;21.13;14.57;;;3.60;96.70;;;;;;5020109;28;20182;-66
2022/12/12 10:59:29;;;;;;;21.20;14.65;;;3.70;96.70;;;;;;5020188;28;20192;-66
2022/12/12 11:01:59;;;;;;;20.53;15.40;;;4.10;96.40;;;;;;5018327;28;20595;-66
2022/12/12 11:04:30;;;;;;;19.40;13.52;;;4.10;95.60;;;;;;5016484;28;20207;-65
2022/12/12 11:06:56;;;;;;;20.30;14.20;;;3.70;95.40;;;;;;5017506;28;20208;-66
2022/12/12 11:09:27;;;;;;;18.13;13.70;;;3.90;95.80;;;;;;5020663;28;20259;-65
2022/12/12 11:12:12;;;;;;;18.70;12.80;;;3.70;95.30;;;;;;5020320;28;20190;-68
2022/12/12 11:14:47;;;;;;;21.02;14.07;;;3.70;95.40;;;;;;5020876;28;20218;-67
2022/12/12 11:17:26;;;;;;;23.55;15.02;;;3.50;96.00;;;;;;5019040;28;20278;-64
2022/12/12 11:19:55;;;;;;;20.25;12.98;;;2.90;96.10;;;;;;5021648;28;20183;-64
2022/12/12 11:22:21;;;;;;;23.42;15.38;;;3.20;96.80;;;;;;5024752;28;20179;-65
2022/12/12 11:24:49;;;;;;;20.88;13.25;;;3.50;96.40;;;;;;5028217;28;20269;-67
2022/12/12 11:27:30;;;;;;;23.40;14.25;;;4.20;95.60;;;;;;5024965;28;20637;-66
2022/12/12 11:30:00;;;;;;;17.17;11.25;;;4.00;94.40;;;;;;5028185;28;20258;-66
2022/12/12 11:32:31;;;;;;;15.52;10.88;;;4.50;93.00;;;;;;5038677;28;20298;-66
2022/12/12 11:35:03;;;;;;;15.00;10.18;;;3.70;92.10;;;;;;5011940;28;20703;-65
2022/12/12 11:37:45;;;;;;;19.65;10.63;;;4.20;92.00;;;;;;5018424;28;20193;-67
2022/12/12 11:40:35;;;;;;;15.98;11.38;;;4.10;91.40;;;;;;5019363;28;20183;-67
2022/12/12 11:43:06;;;;;;;13.77;10.73;;;4.20;91.60;;;;;;5017155;28;20187;-65
2022/12/12 11:45:32;;;;;;;15.27;9.95;;;3.70;92.10;;;;;;5022393;28;20319;-67
2022/12/12 11:47:57;;;;;;;18.17;10.00;;;3.60;92.50;;;;;;5025304;28;20285;-66
2022/12/12 11:50:28;;;;;;;14.83;10.33;;;3.50;92.60;;;;;;5020942;28;20181;-66
2022/12/12 11:52:57;;;;;;;13.60;9.77;;;3.80;92.80;;;;;;5015819;28;20665;-66
2022/12/12 11:55:54;;;;;;;14.90;10.07;;;3.80;92.10;;;;;;5025593;28;20248;-69
2022/12/12 11:58:31;;;;;;;12.10;9.43;;;4.20;92.40;;;;;;5019083;28;20687;-67
2022/12/12 12:01:16;;;;;;;17.23;8.95;;;4.30;91.90;;;;;;5021283;28;20195;-65
2022/12/12 12:03:51;;;;;;;9.75;7.63;;;4.30;91.50;;;;;;5014687;28;20199;-66
2022/12/12 12:06:23;;;;;;;11.80;8.18;;;4.20;91.20;;;;;;5019232;28;20233;-65
2022/12/12 12:09:40;;;;;;;14.10;9.57;;;4.70;90.50;;;;;;5018522;28;20212;-66
2022/12/12 12:12:14;;;;;;;10.60;8.27;;;5.00;89.60;;;;;;5030135;28;20283;-68
2022/12/12 12:15:11;;;;;;;11.02;8.90;;;4.60;89.00;;;;;;5020296;28;20203;-66
2022/12/12 12:17:45;;;;;;;14.05;9.48;;;4.60;89.30;;;;;;5018194;28;20225;-65
2022/12/12 12:20:32;;;;;;;15.63;8.30;;;4.40;89.90;;;;;;5021879;28;20248;-66
2022/12/12 12:23:06;;;;;;;14.25;8.25;;;4.50;90.40;;;;;;5019923;28;20189;-66
2022/12/12 12:25:35;;;;;;;13.48;7.68;;;4.60;90.10;;;;;;5020904;28;20303;-67
2022/12/12 12:28:27;;;;;;;9.85;7.63;;;4.50;90.00;;;;;;5019773;28;20218;-68
2022/12/12 12:31:08;;;;;;;10.07;7.28;;;4.40;90.00;;;;;;5021988;28;20200;-67
2022/12/12 12:33:49;;;;;;;7.22;5.63;;;4.20;90.20;;;;;;5019247;28;20179;-69
2022/12/12 12:36:29;;;;;;;8.25;6.50;;;3.90;90.40;;;;;;5022481;28;20249;-69
2022/12/12 12:39:13;;;;;;;10.68;7.10;;;3.80;90.40;;;;;;5023324;28;20652;-65
2022/12/12 12:42:10;;;;;;;7.93;6.18;;;4.00;90.40;;;;;;5037451;28;20321;-65
2022/12/12 12:45:05;;;;;;;9.23;5.75;;;3.70;91.00;;;;;;5024081;28;20268;-63
2022/12/12 12:47:53;;;;;;;5.88;4.03;;;3.40;90.70;;;;;;5022438;28;20183;-64
2022/12/12 12:50:28;;;;;;;5.03;3.92;;;3.40;90.30;;;;;;5022576;28;20557;-65
2022/12/12 12:53:28;;;;;;;3.88;3.25;;;3.40;90.10;;;;;;5023845;28;20260;-65
2022/12/12 12:55:58;;;;;;;5.38;4.30;;;3.20;89.10;;;;;;5026212;28;20225;-64
2022/12/12 12:58:29;;;;;;;8.93;5.68;;;3.40;89.30;;;;;;5026112;28;20207;-65
2022/12/12 13:01:07;;;;;;;7.20;5.40;;;3.30;89.40;;;;;;5029695;28;20269;-68
2022/12/12 13:03:54;;;;;;;12.30;7.53;;;3.40;90.00;;;;;;5030609;28;20613;-66
2022/12/12 13:06:51;;;;;;;5.68;5.07;;;3.50;89.70;;;;;;5027954;28;20818;-69
2022/12/12 13:09:31;;;;;;;12.93;5.10;;;3.60;89.30;;;;;;5023196;28;20227;-69